createdAt,value
2022-09-28T00:00:50.267Z,968.226
2022-09-28T00:02:50.628Z,968.208
2022-09-28T00:04:50.349Z,968.177
2022-09-28T00:06:50.629Z,968.177
2022-09-28T00:08:50.681Z,968.022
2022-09-28T00:10:50.534Z,967.940
2022-09-28T00:12:50.299Z,967.966
2022-09-28T00:14:50.205Z,967.912
2022-09-28T00:16:50.493Z,967.901
2022-09-28T00:18:50.585Z,967.876
2022-09-28T00:20:50.581Z,967.876
2022-09-28T00:22:50.541Z,967.827
2022-09-28T00:24:50.222Z,967.741
2022-09-28T00:26:50.121Z,967.811
2022-09-28T00:28:49.972Z,967.811
2022-09-28T00:30:50.731Z,967.743
2022-09-28T00:32:50.536Z,967.705
2022-09-28T00:34:49.840Z,967.607
2022-09-28T00:36:49.984Z,967.607
2022-09-28T00:38:49.930Z,967.429
2022-09-28T00:40:50.924Z,967.423
2022-09-28T00:42:50.060Z,967.372
2022-09-28T00:44:49.887Z,967.430
2022-09-28T00:46:49.982Z,967.420
2022-09-28T00:48:50.692Z,967.399
2022-09-28T00:50:50.584Z,967.333
2022-09-28T00:52:50.578Z,967.423
2022-09-28T00:54:50.426Z,967.360
2022-09-28T00:56:50.496Z,967.259
2022-09-28T00:58:50.413Z,967.204
2022-09-28T01:00:50.388Z,967.172
2022-09-28T01:02:50.463Z,967.265
2022-09-28T01:04:49.854Z,967.252
2022-09-28T01:06:49.903Z,967.195
2022-09-28T01:08:50.787Z,967.048
2022-09-28T01:10:50.647Z,967.035
2022-09-28T01:12:50.581Z,966.993
2022-09-28T01:14:50.412Z,966.986
2022-09-28T01:16:50.854Z,966.864
2022-09-28T01:18:50.711Z,966.798
2022-09-28T01:20:50.549Z,966.828
2022-09-28T01:22:50.622Z,966.729
2022-09-28T01:24:50.428Z,966.635
2022-09-28T01:26:50.711Z,966.511
2022-09-28T01:28:50.674Z,966.552
2022-09-28T01:30:50.612Z,966.525
2022-09-28T01:32:50.523Z,966.497
2022-09-28T01:34:49.893Z,966.433
2022-09-28T01:36:49.860Z,966.415
2022-09-28T01:38:49.822Z,966.437
2022-09-28T01:40:50.837Z,966.383
2022-09-28T01:42:49.921Z,966.336
2022-09-28T01:44:50.724Z,966.249
2022-09-28T01:46:49.866Z,966.165
2022-09-28T01:48:50.706Z,966.135
2022-09-28T01:50:50.512Z,966.148
2022-09-28T01:52:50.332Z,966.065
2022-09-28T01:54:50.193Z,966.065
2022-09-28T01:56:50.307Z,965.998
2022-09-28T01:58:50.303Z,965.949
2022-09-28T02:00:50.177Z,965.904
2022-09-28T02:02:50.273Z,965.916
2022-09-28T02:04:50.432Z,965.877
2022-09-28T02:06:50.719Z,965.813
2022-09-28T02:08:49.929Z,965.813
2022-09-28T02:10:49.841Z,965.786
2022-09-28T02:12:50.680Z,965.812
2022-09-28T02:14:50.404Z,965.758
2022-09-28T02:16:50.724Z,965.665
2022-09-28T02:18:50.544Z,965.656
2022-09-28T02:20:50.391Z,965.653
2022-09-28T02:22:50.164Z,965.577
2022-09-28T02:24:49.807Z,965.610
2022-09-28T02:26:50.035Z,965.584
2022-09-28T02:28:49.984Z,965.572
2022-09-28T02:30:49.865Z,965.561
2022-09-28T02:32:50.590Z,965.567
2022-09-28T02:34:49.899Z,965.586
2022-09-28T02:36:50.075Z,965.513
2022-09-28T02:38:50.750Z,965.457
2022-09-28T02:40:50.901Z,965.537
2022-09-28T02:42:50.041Z,965.509
2022-09-28T02:44:49.866Z,965.451
2022-09-28T02:46:50.058Z,965.419
2022-09-28T02:49:21.214Z,965.374
2022-09-28T02:50:50.164Z,965.346
2022-09-28T02:52:50.008Z,965.366
2022-09-28T02:54:50.795Z,965.369
2022-09-28T02:56:49.940Z,965.356
2022-09-28T02:58:50.633Z,965.324
2022-09-28T03:00:50.538Z,965.324
2022-09-28T03:02:50.533Z,965.231
2022-09-28T03:04:50.039Z,965.238
2022-09-28T03:06:50.071Z,965.227
2022-09-28T03:08:49.872Z,965.156
2022-09-28T03:10:50.739Z,965.161
2022-09-28T03:12:50.572Z,965.126
2022-09-28T03:14:50.271Z,965.051
2022-09-28T03:16:50.398Z,965.063
2022-09-28T03:18:50.351Z,965.009
2022-09-28T03:20:50.218Z,965.037
2022-09-28T03:23:24.159Z,964.896
2022-09-28T03:24:50.449Z,964.876
2022-09-28T03:26:50.683Z,964.867
2022-09-28T03:28:50.580Z,964.818
2022-09-28T03:30:50.362Z,964.717
2022-09-28T03:32:50.304Z,964.725
2022-09-28T03:34:50.506Z,964.631
2022-09-28T03:36:50.653Z,964.638
2022-09-28T03:38:50.486Z,964.638
2022-09-28T03:40:50.524Z,964.531
2022-09-28T03:42:49.854Z,964.561
2022-09-28T03:44:50.787Z,964.453
2022-09-28T03:46:50.024Z,964.471
2022-09-28T03:48:49.888Z,964.428
2022-09-28T03:50:50.639Z,964.406
2022-09-28T03:52:50.542Z,964.366
2022-09-28T03:54:50.437Z,964.289
2022-09-28T03:56:50.665Z,964.298
2022-09-28T03:58:50.516Z,964.220
2022-09-28T04:00:50.672Z,964.168
2022-09-28T04:02:49.817Z,964.148
2022-09-28T04:04:50.334Z,964.161
2022-09-28T04:06:50.590Z,964.157
2022-09-28T04:08:50.424Z,964.124
2022-09-28T04:10:50.422Z,964.088
2022-09-28T04:12:50.399Z,964.025
2022-09-28T04:14:50.316Z,964.027
2022-09-28T04:16:49.899Z,963.996
2022-09-28T04:18:49.832Z,963.984
2022-09-28T04:20:50.608Z,963.909
2022-09-28T04:22:50.624Z,963.857
2022-09-28T04:24:49.782Z,963.857
2022-09-28T04:26:50.792Z,963.877
2022-09-28T04:28:50.544Z,963.885
2022-09-28T04:30:50.470Z,963.785
2022-09-28T04:32:50.437Z,963.742
2022-09-28T04:34:50.493Z,963.772
2022-09-28T04:36:50.778Z,963.687
2022-09-28T04:38:53.953Z,963.687
2022-09-28T04:40:50.942Z,963.701
2022-09-28T04:42:50.342Z,963.692
2022-09-28T04:44:50.165Z,963.660
2022-09-28T04:46:50.343Z,963.627
2022-09-28T04:48:50.202Z,963.653
2022-09-28T04:50:50.222Z,963.570
2022-09-28T04:52:49.969Z,963.541
2022-09-28T04:54:50.771Z,963.529
2022-09-28T04:56:49.853Z,963.535
2022-09-28T04:58:53.221Z,963.523
2022-09-28T05:00:50.379Z,963.472
2022-09-28T05:02:50.211Z,963.421
2022-09-28T05:04:50.614Z,963.427
2022-09-28T05:06:50.754Z,963.499
2022-09-28T05:08:49.799Z,963.480
2022-09-28T05:10:50.762Z,963.481
2022-09-28T05:12:50.602Z,963.385
2022-09-28T05:14:50.433Z,963.407
2022-09-28T05:16:50.911Z,963.405
2022-09-28T05:18:49.809Z,963.445
2022-09-28T05:20:50.625Z,963.432
2022-09-28T05:22:50.579Z,963.383
2022-09-28T05:24:50.591Z,963.368
2022-09-28T05:26:50.165Z,963.360
2022-09-28T05:28:50.188Z,963.318
2022-09-28T05:30:50.000Z,963.308
2022-09-28T05:32:50.693Z,963.284
2022-09-28T05:34:50.148Z,963.247
2022-09-28T05:36:50.231Z,963.260
2022-09-28T05:38:50.025Z,963.414
2022-09-28T05:40:50.477Z,963.494
2022-09-28T05:42:50.570Z,963.545
2022-09-28T05:44:50.740Z,963.465
2022-09-28T05:46:50.792Z,963.460
2022-09-28T05:48:50.642Z,963.475
2022-09-28T05:50:50.585Z,963.500
2022-09-28T05:52:50.620Z,963.474
2022-09-28T05:54:50.320Z,963.438
2022-09-28T05:56:50.519Z,963.476
2022-09-28T05:58:50.523Z,963.421
2022-09-28T06:00:50.588Z,963.398
2022-09-28T06:02:51.024Z,963.397
2022-09-28T06:04:50.567Z,963.385
2022-09-28T06:06:49.869Z,963.349
2022-09-28T06:08:50.738Z,963.388
2022-09-28T06:10:49.889Z,963.347
2022-09-28T06:12:50.735Z,963.362
2022-09-28T06:14:50.587Z,963.364
2022-09-28T06:16:50.920Z,963.408
2022-09-28T06:18:50.222Z,963.384
2022-09-28T06:20:50.137Z,963.391
2022-09-28T06:22:49.942Z,963.391
2022-09-28T06:24:50.788Z,963.417
2022-09-28T06:26:49.920Z,963.439
2022-09-28T06:28:50.148Z,963.526
2022-09-28T06:30:50.136Z,963.617
2022-09-28T06:32:50.317Z,963.590
2022-09-28T06:34:56.722Z,963.593
2022-09-28T06:36:50.266Z,963.620
2022-09-28T06:38:50.161Z,963.669
2022-09-28T06:40:50.486Z,963.693
2022-09-28T06:42:50.560Z,963.768
2022-09-28T06:44:50.424Z,963.790
2022-09-28T06:46:49.785Z,963.767
2022-09-28T06:48:50.662Z,963.768
2022-09-28T06:50:50.479Z,963.742
2022-09-28T06:52:50.309Z,963.744
2022-09-28T06:54:50.294Z,963.777
2022-09-28T06:56:50.311Z,963.767
2022-09-28T06:58:49.986Z,963.906
2022-09-28T07:00:50.003Z,963.913
2022-09-28T07:02:50.063Z,963.965
2022-09-28T07:04:50.703Z,963.907
2022-09-28T07:06:49.918Z,963.936
2022-09-28T07:09:25.111Z,963.933
2022-09-28T07:10:49.974Z,963.956
2022-09-28T07:12:49.905Z,963.984
2022-09-28T07:14:51.066Z,964.034
2022-09-28T07:17:12.090Z,964.079
2022-09-28T07:18:49.999Z,964.014
2022-09-28T07:20:54.960Z,964.049
2022-09-28T07:22:49.817Z,964.113
2022-09-28T07:24:50.212Z,964.192
2022-09-28T07:26:50.485Z,964.219
2022-09-28T07:28:50.394Z,964.256
2022-09-28T07:30:50.655Z,964.304
2022-09-28T07:32:49.852Z,964.353
2022-09-28T07:34:56.643Z,964.387
2022-09-28T07:36:50.308Z,964.366
2022-09-28T07:38:50.410Z,964.363
2022-09-28T07:40:50.687Z,964.316
2022-09-28T07:42:50.773Z,964.362
2022-09-28T07:44:50.637Z,964.304
2022-09-28T07:46:50.751Z,964.394
2022-09-28T07:48:50.759Z,964.365
2022-09-28T07:50:50.616Z,964.445
2022-09-28T07:52:50.441Z,964.533
2022-09-28T07:54:50.525Z,964.543
2022-09-28T07:56:49.990Z,964.521
2022-09-28T07:58:49.932Z,964.588
2022-09-28T08:00:51.163Z,964.588
2022-09-28T08:02:50.409Z,964.605
2022-09-28T08:04:50.038Z,964.624
2022-09-28T08:06:50.269Z,964.689
2022-09-28T08:08:50.080Z,964.708
2022-09-28T08:10:50.058Z,964.706
2022-09-28T08:12:50.163Z,964.662
2022-09-28T08:14:50.260Z,964.662
2022-09-28T08:16:53.677Z,964.831
2022-09-28T08:18:50.585Z,964.831
2022-09-28T08:20:52.098Z,964.865
2022-09-28T08:22:50.321Z,964.847
2022-09-28T08:24:50.393Z,964.971
2022-09-28T08:26:50.734Z,964.972
2022-09-28T08:28:50.662Z,965.020
2022-09-28T08:30:50.793Z,965.110
2022-09-28T08:32:49.886Z,965.113
2022-09-28T08:34:50.133Z,965.117
2022-09-28T08:36:50.258Z,965.119
2022-09-28T08:38:50.263Z,965.181
2022-09-28T08:40:50.647Z,965.190
2022-09-28T08:42:50.700Z,965.223
2022-09-28T08:44:50.676Z,965.223
2022-09-28T08:46:49.943Z,965.219
2022-09-28T08:49:24.832Z,965.202
2022-09-28T08:50:50.118Z,965.270
2022-09-28T08:52:50.005Z,965.243
2022-09-28T08:54:50.702Z,965.259
2022-09-28T08:56:50.094Z,965.310
2022-09-28T08:58:49.885Z,965.314
2022-09-28T09:00:50.114Z,965.347
2022-09-28T09:02:50.456Z,965.367
2022-09-28T09:04:50.051Z,965.374
2022-09-28T09:06:50.540Z,965.403
2022-09-28T09:08:50.381Z,965.397
2022-09-28T09:10:50.177Z,965.375
2022-09-28T09:12:50.318Z,965.367
2022-09-28T09:14:50.453Z,965.467
2022-09-28T09:16:51.067Z,965.481
2022-09-28T09:18:50.123Z,965.463
2022-09-28T09:20:49.862Z,965.497
2022-09-28T09:22:50.645Z,965.485
2022-09-28T09:24:50.625Z,965.579
2022-09-28T09:26:49.984Z,965.641
2022-09-28T09:28:49.857Z,965.713
2022-09-28T09:30:50.885Z,965.829
2022-09-28T09:32:50.014Z,965.800
2022-09-28T09:34:50.502Z,965.847
2022-09-28T09:36:49.859Z,965.831
2022-09-28T09:38:49.790Z,965.833
2022-09-28T09:40:51.084Z,965.845
2022-09-28T09:42:50.296Z,965.886
2022-09-28T09:44:50.194Z,965.844
2022-09-28T09:46:50.271Z,965.839
2022-09-28T09:48:50.102Z,965.886
2022-09-28T09:50:49.968Z,965.888
2022-09-28T09:52:49.904Z,965.850
2022-09-28T09:54:50.023Z,965.869
2022-09-28T09:56:50.188Z,965.987
2022-09-28T09:58:50.085Z,966.008
2022-09-28T10:00:49.902Z,966.020
2022-09-28T10:02:50.335Z,966.091
2022-09-28T10:04:49.929Z,966.068
2022-09-28T10:06:49.971Z,966.124
2022-09-28T10:08:50.808Z,966.014
2022-09-28T10:10:50.784Z,966.077
2022-09-28T10:12:50.634Z,966.122
2022-09-28T10:14:50.551Z,966.122
2022-09-28T10:16:50.832Z,966.075
2022-09-28T10:18:50.020Z,966.143
2022-09-28T10:20:49.901Z,966.158
2022-09-28T10:22:50.753Z,966.186
2022-09-28T10:24:50.573Z,966.184
2022-09-28T10:26:49.864Z,966.184
2022-09-28T10:28:50.563Z,966.190
2022-09-28T10:30:50.852Z,966.150
2022-09-28T10:32:50.213Z,966.148
2022-09-28T10:34:51.463Z,966.138
2022-09-28T10:36:49.813Z,966.093
2022-09-28T10:38:50.698Z,966.139
2022-09-28T10:40:50.981Z,966.114
2022-09-28T10:42:50.385Z,966.183
2022-09-28T10:44:50.260Z,966.157
2022-09-28T10:46:50.354Z,966.266
2022-09-28T10:48:50.203Z,966.266
2022-09-28T10:50:50.090Z,966.239
2022-09-28T10:52:50.132Z,966.240
2022-09-28T10:54:50.010Z,966.257
2022-09-28T10:56:50.207Z,966.261
2022-09-28T10:58:50.631Z,966.323
2022-09-28T11:00:50.560Z,966.156
2022-09-28T11:02:50.664Z,966.188
2022-09-28T11:04:50.158Z,966.126
2022-09-28T11:06:50.637Z,966.119
2022-09-28T11:08:50.737Z,966.157
2022-09-28T11:10:50.488Z,966.126
2022-09-28T11:12:50.348Z,966.200
2022-09-28T11:14:50.140Z,966.064
2022-09-28T11:16:50.585Z,966.096
2022-09-28T11:18:50.713Z,966.138
2022-09-28T11:20:50.546Z,966.133
2022-09-28T11:22:53.720Z,966.135
2022-09-28T11:24:50.755Z,966.137
2022-09-28T11:26:50.759Z,966.071
2022-09-28T11:28:50.541Z,966.086
2022-09-28T11:30:50.721Z,966.143
2022-09-28T11:32:50.683Z,966.078
2022-09-28T11:35:00.678Z,966.096
2022-09-28T11:36:49.939Z,966.076
2022-09-28T11:38:50.773Z,966.121
2022-09-28T11:40:50.919Z,966.072
2022-09-28T11:42:50.147Z,966.144
2022-09-28T11:44:50.137Z,966.113
2022-09-28T11:46:50.408Z,966.117
2022-09-28T11:48:50.201Z,966.125
2022-09-28T11:50:50.246Z,966.000
2022-09-28T11:52:50.149Z,966.078
2022-09-28T11:54:50.001Z,966.045
2022-09-28T11:56:49.900Z,966.083
2022-09-28T11:58:49.922Z,966.100
2022-09-28T12:00:50.714Z,966.080
2022-09-28T12:02:50.936Z,966.112
2022-09-28T12:04:50.769Z,966.079
2022-09-28T12:06:49.930Z,966.109
2022-09-28T12:08:50.807Z,966.097
2022-09-28T12:10:49.837Z,966.054
2022-09-28T12:12:49.833Z,966.157
2022-09-28T12:14:50.678Z,966.133
2022-09-28T12:17:08.422Z,966.306
2022-09-28T12:18:50.481Z,966.260
2022-09-28T12:20:50.655Z,966.199
2022-09-28T12:22:50.597Z,966.188
2022-09-28T12:24:50.610Z,966.143
2022-09-28T12:26:49.835Z,966.154
2022-09-28T12:28:50.740Z,966.128
2022-09-28T12:30:50.858Z,966.242
2022-09-28T12:32:49.870Z,966.246
2022-09-28T12:34:49.916Z,966.246
2022-09-28T13:08:50.143Z,966.325
2022-09-28T13:10:50.084Z,966.277
2022-09-28T13:12:50.052Z,966.324
2022-09-28T13:14:49.919Z,966.248
2022-09-28T13:16:50.057Z,966.341
2022-09-28T13:18:49.899Z,966.249
2022-09-28T13:20:50.758Z,966.256
2022-09-28T13:22:50.650Z,966.281
2022-09-28T13:24:50.702Z,966.315
2022-09-28T13:26:49.961Z,966.312
2022-09-28T13:28:49.874Z,966.253
2022-09-28T13:30:50.971Z,966.256
2022-09-28T13:32:50.154Z,966.242
2022-09-28T13:34:50.477Z,966.242
2022-09-28T13:36:49.801Z,966.238
2022-09-28T13:38:50.531Z,966.284
2022-09-28T13:40:50.642Z,966.228
2022-09-28T13:42:49.941Z,966.235
2022-09-28T13:44:50.777Z,966.242
2022-09-28T13:46:50.735Z,966.263
2022-09-28T13:48:50.677Z,966.374
2022-09-28T13:50:50.800Z,966.330
2022-09-28T13:52:50.588Z,966.272
2022-09-28T13:54:50.259Z,966.272
2022-09-28T13:56:50.530Z,966.331
2022-09-28T13:58:50.541Z,966.275
2022-09-28T14:00:50.693Z,966.253
2022-09-28T14:02:50.740Z,966.444
2022-09-28T14:04:50.278Z,966.367
2022-09-28T14:06:55.975Z,966.409
2022-09-28T14:08:50.151Z,966.310
2022-09-28T14:10:50.036Z,966.328
2022-09-28T14:12:49.821Z,966.303
2022-09-28T14:14:50.627Z,966.350
2022-09-28T14:16:50.815Z,966.339
2022-09-28T14:18:50.730Z,966.315
2022-09-28T14:20:50.569Z,966.355
2022-09-28T14:22:50.507Z,966.335
2022-09-28T14:24:50.420Z,966.346
2022-09-28T14:26:50.730Z,966.338
2022-09-28T14:28:50.593Z,966.345
2022-09-28T14:30:50.739Z,966.385
2022-09-28T14:32:49.809Z,966.342
2022-09-28T14:34:49.918Z,966.332
2022-09-28T14:36:49.837Z,966.533
2022-09-28T14:38:50.557Z,966.449
2022-09-28T14:40:50.660Z,966.473
2022-09-28T14:44:50.047Z,966.504
2022-09-28T14:46:50.137Z,966.576
2022-09-28T14:48:49.931Z,966.670
2022-09-28T14:50:49.841Z,966.681
2022-09-28T14:52:49.863Z,966.712
2022-09-28T14:54:50.568Z,966.659
2022-09-28T14:56:50.743Z,966.598
2022-09-28T14:58:50.639Z,966.646
2022-09-28T15:00:50.579Z,966.645
2022-09-28T15:02:50.578Z,966.628
2022-09-28T15:04:50.232Z,966.700
2022-09-28T15:06:50.185Z,966.726
2022-09-28T15:08:50.137Z,966.788
2022-09-28T15:10:50.187Z,966.790
2022-09-28T15:12:49.832Z,966.807
2022-09-28T15:14:49.820Z,966.907
2022-09-28T15:16:49.861Z,966.855
2022-09-28T15:18:49.828Z,966.893
2022-09-28T15:20:50.529Z,966.906
2022-09-28T15:22:50.403Z,966.862
2022-09-28T15:24:50.109Z,966.845
2022-09-28T15:26:50.343Z,966.885
2022-09-28T15:28:50.408Z,966.899
2022-09-28T15:30:50.481Z,966.859
2022-09-28T15:32:50.548Z,966.838
2022-09-28T15:34:49.976Z,966.873
2022-09-28T15:36:50.212Z,966.874
2022-09-28T15:38:49.808Z,966.884
2022-09-28T15:40:51.005Z,966.838
2022-09-28T15:42:50.290Z,966.854
2022-09-28T15:44:50.121Z,966.888
2022-09-28T15:46:50.198Z,966.914
2022-09-28T15:48:49.948Z,966.958
2022-09-28T15:50:50.728Z,966.974
2022-09-28T15:52:50.407Z,967.014
2022-09-28T15:54:50.386Z,967.105
2022-09-28T15:56:50.470Z,967.091
2022-09-28T15:58:50.189Z,967.114
2022-09-28T16:00:50.185Z,967.098
2022-09-28T16:02:50.268Z,967.077
2022-09-28T16:04:49.978Z,967.085
2022-09-28T16:06:50.205Z,967.150
2022-09-28T16:08:50.188Z,967.136
2022-09-28T16:10:50.115Z,967.240
2022-09-28T16:12:50.006Z,967.223
2022-09-28T16:14:50.721Z,967.171
2022-09-28T16:16:50.670Z,967.168
2022-09-28T16:18:50.582Z,967.245
2022-09-28T16:20:50.515Z,967.226
2022-09-28T16:22:50.426Z,967.306
2022-09-28T16:24:50.451Z,967.268
2022-09-28T16:26:50.587Z,967.222
2022-09-28T16:28:50.567Z,967.250
2022-09-28T16:30:50.605Z,967.314
2022-09-28T16:32:50.531Z,967.308
2022-09-28T16:34:50.099Z,967.343
2022-09-28T16:36:50.146Z,967.361
2022-09-28T16:38:49.924Z,967.403
2022-09-28T16:40:50.271Z,967.404
2022-09-28T16:42:50.531Z,967.418
2022-09-28T16:44:50.399Z,967.438
2022-09-28T16:46:50.725Z,967.436
2022-09-28T16:48:49.850Z,967.477
2022-09-28T16:50:49.882Z,967.425
2022-09-28T16:52:49.813Z,967.419
2022-09-28T16:54:50.704Z,967.453
2022-09-28T16:56:49.956Z,967.504
2022-09-28T16:58:49.888Z,967.534
2022-09-28T17:00:49.854Z,967.468
2022-09-28T17:02:50.837Z,967.521
2022-09-28T17:04:50.114Z,967.472
2022-09-28T17:06:50.023Z,967.481
2022-09-28T17:08:49.879Z,967.444
2022-09-28T17:11:15.668Z,967.452
2022-09-28T17:12:50.735Z,967.475
2022-09-28T17:14:50.556Z,967.477
2022-09-28T17:17:13.854Z,967.494
2022-09-28T17:18:50.267Z,967.474
2022-09-28T17:20:50.045Z,967.477
2022-09-28T17:22:49.976Z,967.477
2022-09-28T17:24:49.888Z,967.489
2022-09-28T17:26:50.140Z,967.502
2022-09-28T17:28:49.929Z,967.559
2022-09-28T17:30:50.130Z,967.563
2022-09-28T17:32:50.264Z,967.554
2022-09-28T17:35:23.969Z,967.600
2022-09-28T17:36:50.628Z,967.585
2022-09-28T17:38:50.504Z,967.622
2022-09-28T17:40:50.490Z,967.614
2022-09-28T17:42:50.534Z,967.624
2022-09-28T17:44:50.354Z,967.664
2022-09-28T17:46:50.559Z,967.702
2022-09-28T17:48:50.535Z,967.710
2022-09-28T17:50:50.510Z,967.690
2022-09-28T17:52:50.688Z,967.693
2022-09-28T17:54:50.664Z,967.691
2022-09-28T17:56:50.754Z,967.694
2022-09-28T17:58:50.582Z,967.737
2022-09-28T18:00:50.350Z,967.747
2022-09-28T18:02:50.653Z,967.787
2022-09-28T18:04:53.109Z,967.779
2022-09-28T18:06:50.311Z,967.809
2022-09-28T18:08:50.158Z,967.818
2022-09-28T18:10:49.974Z,967.818
2022-09-28T18:12:50.768Z,967.831
2022-09-28T18:14:50.600Z,967.810
2022-09-28T18:16:49.865Z,967.819
2022-09-28T18:18:50.041Z,967.819
2022-09-28T18:20:50.625Z,967.864
2022-09-28T18:22:50.516Z,967.833
2022-09-28T18:24:50.598Z,967.867
2022-09-28T18:26:50.135Z,967.890
2022-09-28T18:28:50.008Z,967.876
2022-09-28T18:30:50.858Z,967.901
2022-09-28T18:32:49.900Z,967.874
2022-09-28T18:34:50.157Z,967.930
2022-09-28T18:36:50.724Z,967.933
2022-09-28T18:38:50.550Z,967.998
2022-09-28T18:40:50.761Z,968.006
2022-09-28T18:42:49.901Z,968.050
2022-09-28T18:44:50.673Z,968.063
2022-09-28T18:46:50.121Z,968.023
2022-09-28T18:48:50.084Z,968.133
2022-09-28T18:50:49.985Z,968.185
2022-09-28T18:52:49.876Z,968.183
2022-09-28T18:54:49.837Z,968.216
2022-09-28T18:56:49.953Z,968.245
2022-09-28T18:58:49.856Z,968.266
2022-09-28T19:00:50.672Z,968.249
2022-09-28T19:02:50.294Z,968.274
2022-09-28T19:04:50.136Z,968.262
2022-09-28T19:06:50.283Z,968.289
2022-09-28T19:08:50.186Z,968.307
2022-09-28T19:10:50.150Z,968.312
2022-09-28T19:12:50.142Z,968.272
2022-09-28T19:14:49.828Z,968.304
2022-09-28T19:16:49.903Z,968.309
2022-09-28T19:18:49.947Z,968.333
2022-09-28T19:20:50.003Z,968.350
2022-09-28T19:22:49.824Z,968.355
2022-09-28T19:24:50.666Z,968.354
2022-09-28T19:26:49.952Z,968.346
2022-09-28T19:28:49.881Z,968.393
2022-09-28T19:30:51.079Z,968.450
2022-09-28T19:32:50.291Z,968.464
2022-09-28T19:34:50.630Z,968.490
2022-09-28T19:36:49.793Z,968.498
2022-09-28T19:38:50.739Z,968.513
2022-09-28T19:40:50.954Z,968.511
2022-09-28T19:42:49.951Z,968.532
2022-09-28T19:44:49.861Z,968.575
2022-09-28T19:46:49.865Z,968.610
2022-09-28T19:48:49.830Z,968.601
2022-09-28T19:50:50.726Z,968.634
2022-09-28T19:52:50.568Z,968.677
2022-09-28T19:54:50.349Z,968.652
2022-09-28T19:56:50.548Z,968.669
2022-09-28T19:58:50.543Z,968.721
2022-09-28T20:00:50.542Z,968.730
2022-09-28T20:02:50.728Z,968.742
2022-09-28T20:04:50.568Z,968.805
2022-09-28T20:06:49.892Z,968.792
2022-09-28T20:08:50.768Z,968.833
2022-09-28T20:10:50.812Z,968.828
2022-09-28T20:12:50.610Z,968.867
2022-09-28T20:14:50.550Z,968.861
2022-09-28T20:16:49.755Z,968.865
2022-09-28T20:18:50.628Z,968.900
2022-09-28T20:20:50.509Z,968.936
2022-09-28T20:22:50.364Z,968.922
2022-09-28T20:24:50.443Z,969.010
2022-09-28T20:26:50.618Z,969.027
2022-09-28T20:28:50.439Z,969.060
2022-09-28T20:30:50.468Z,969.079
2022-09-28T20:32:50.740Z,969.075
2022-09-28T20:34:50.163Z,969.121
2022-09-28T20:36:50.516Z,969.081
2022-09-28T20:38:50.304Z,969.088
2022-09-28T20:40:50.209Z,969.129
2022-09-28T20:42:50.261Z,969.154
2022-09-28T20:44:50.233Z,969.176
2022-09-28T20:46:50.583Z,969.176
2022-09-28T20:48:50.538Z,969.193
2022-09-28T20:50:50.359Z,969.212
2022-09-28T20:52:50.083Z,969.208
2022-09-28T20:54:49.960Z,969.208
2022-09-28T20:56:50.009Z,969.245
2022-09-28T20:58:49.879Z,969.245
2022-09-28T21:00:50.690Z,969.261
2022-09-28T21:02:50.906Z,969.269
2022-09-28T21:04:50.180Z,969.233
2022-09-28T21:06:50.417Z,969.222
2022-09-28T21:08:50.274Z,969.208
2022-09-28T21:10:50.217Z,969.239
2022-09-28T21:12:50.123Z,969.247
2022-09-28T21:14:50.201Z,969.224
2022-09-28T21:16:50.298Z,969.222
2022-09-28T21:18:50.055Z,969.199
2022-09-28T21:20:50.139Z,969.213
2022-09-28T21:22:50.074Z,969.263
2022-09-28T21:24:49.873Z,969.284
2022-09-28T21:26:49.841Z,969.306
2022-09-28T21:28:50.677Z,969.296
2022-09-28T21:30:50.720Z,969.282
2022-09-28T21:32:50.034Z,969.333
2022-09-28T21:34:50.006Z,969.384
2022-09-28T21:36:50.119Z,969.359
2022-09-28T21:38:50.078Z,969.343
2022-09-28T21:40:50.304Z,969.351
2022-09-28T21:42:50.493Z,969.319
2022-09-28T21:44:50.279Z,969.298
2022-09-28T21:46:50.344Z,969.287
2022-09-28T21:48:50.304Z,969.269
2022-09-28T21:50:50.285Z,969.247
2022-09-28T21:52:50.154Z,969.250
2022-09-28T21:54:49.879Z,969.240
2022-09-28T21:56:49.836Z,969.238
2022-09-28T21:58:50.760Z,969.240
2022-09-28T22:00:50.649Z,969.201
2022-09-28T22:02:50.812Z,969.219
2022-09-28T22:04:50.582Z,969.219
2022-09-28T22:06:49.908Z,969.203
2022-09-28T22:08:50.726Z,969.216
2022-09-28T22:10:50.621Z,969.271
2022-09-28T22:12:50.361Z,969.304
2022-09-28T22:14:50.108Z,969.313
2022-09-28T22:16:50.516Z,969.270
2022-09-28T22:18:50.555Z,969.304
2022-09-28T22:20:50.546Z,969.302
2022-09-28T22:22:50.405Z,969.315
2022-09-28T22:24:50.009Z,969.331
2022-09-28T22:26:49.863Z,969.339
2022-09-28T22:28:50.639Z,969.269
2022-09-28T22:30:50.755Z,969.265
2022-09-28T22:32:49.780Z,969.336
2022-09-28T22:34:50.094Z,969.334
2022-09-28T22:36:50.178Z,969.342
2022-09-28T22:38:50.135Z,969.351
2022-09-28T22:40:50.257Z,969.351
2022-09-28T22:42:50.632Z,969.411
2022-09-28T22:44:50.571Z,969.419
2022-09-28T22:46:51.249Z,969.444
2022-09-28T22:48:50.715Z,969.433
2022-09-28T22:50:50.601Z,969.433
2022-09-28T22:52:50.692Z,969.433
2022-09-28T22:54:50.455Z,969.435
2022-09-28T22:56:49.839Z,969.393
2022-09-28T22:58:50.690Z,969.410
2022-09-28T23:00:50.607Z,969.384
2022-09-28T23:02:50.586Z,969.428
2022-09-28T23:04:49.995Z,969.459
2022-09-28T23:06:50.003Z,969.449
2022-09-28T23:08:49.804Z,969.454
2022-09-28T23:10:50.789Z,969.479
2022-09-28T23:12:50.676Z,969.492
2022-09-28T23:14:50.605Z,969.465
2022-09-28T23:16:49.791Z,969.468
2022-09-28T23:18:50.650Z,969.479
2022-09-28T23:20:50.557Z,969.456
2022-09-28T23:22:50.386Z,969.476
2022-09-28T23:24:50.152Z,969.497
2022-09-28T23:26:50.358Z,969.495
2022-09-28T23:28:50.234Z,969.514
2022-09-28T23:30:50.275Z,969.515
2022-09-28T23:32:50.474Z,969.525
2022-09-28T23:34:50.783Z,969.507
2022-09-28T23:36:49.968Z,969.577
2022-09-28T23:38:49.913Z,969.548
2022-09-28T23:40:50.791Z,969.551
2022-09-28T23:42:50.710Z,969.591
2022-09-28T23:44:49.822Z,969.592
2022-09-28T23:46:50.209Z,969.592
2022-09-28T23:48:50.187Z,969.664
2022-09-28T23:50:49.959Z,969.644
2022-09-28T23:52:50.746Z,969.596
2022-09-28T23:54:50.444Z,969.579
2022-09-28T23:56:50.581Z,969.624
2022-09-28T23:58:50.639Z,969.588
